sensor_id;sensor_type;location;lat;lon;timestamp;pressure;altitude;pressure_sealevel;temperature;humidity
20620;BME280;10469;42.720;23.252;2023-05-29T00:01:26;94686.13;;;14.05;100.00
20620;BME280;10469;42.720;23.252;2023-05-29T00:03:52;94693.63;;;13.93;100.00
20620;BME280;10469;42.720;23.252;2023-05-29T00:06:18;94689.81;;;13.89;100.00
20620;BME280;10469;42.720;23.252;2023-05-29T00:08:44;94686.75;;;13.70;100.00
20620;BME280;10469;42.720;23.252;2023-05-29T00:11:10;94696.47;;;13.76;100.00
20620;BME280;10469;42.720;23.252;2023-05-29T00:13:35;94680.31;;;13.76;100.00
20620;BME280;10469;42.720;23.252;2023-05-29T00:16:01;94680.31;;;13.76;100.00
20620;BME280;10469;42.720;23.252;2023-05-29T00:18:28;94698.66;;;13.79;100.00
20620;BME280;10469;42.720;23.252;2023-05-29T00:20:54;94692.75;;;13.77;100.00
20620;BME280;10469;42.720;23.252;2023-05-29T00:23:20;94705.13;;;13.78;100.00
20620;BME280;10469;42.720;23.252;2023-05-29T00:25:46;94697.50;;;13.65;100.00
20620;BME280;10469;42.720;23.252;2023-05-29T00:28:12;94697.22;;;13.62;100.00
20620;BME280;10469;42.720;23.252;2023-05-29T00:30:38;94703.94;;;13.64;100.00
20620;BME280;10469;42.720;23.252;2023-05-29T00:33:04;94689.94;;;13.62;100.00
20620;BME280;10469;42.720;23.252;2023-05-29T00:35:30;94686.47;;;13.67;100.00
20620;BME280;10469;42.720;23.252;2023-05-29T00:37:56;94703.94;;;13.64;100.00
20620;BME280;10469;42.720;23.252;2023-05-29T00:40:22;94696.97;;;13.68;100.00
20620;BME280;10469;42.720;23.252;2023-05-29T00:42:48;94687.28;;;13.67;100.00
20620;BME280;10469;42.720;23.252;2023-05-29T00:45:13;94695.88;;;13.64;100.00
20620;BME280;10469;42.720;23.252;2023-05-29T00:47:40;94688.31;;;13.61;100.00
20620;BME280;10469;42.720;23.252;2023-05-29T00:50:08;94697.72;;;13.59;100.00
20620;BME280;10469;42.720;23.252;2023-05-29T00:52:37;94695.00;;;13.53;100.00
20620;BME280;10469;42.720;23.252;2023-05-29T00:55:03;94689.31;;;13.50;100.00
20620;BME280;10469;42.720;23.252;2023-05-29T00:57:30;94698.22;;;13.55;100.00
20620;BME280;10469;42.720;23.252;2023-05-29T00:59:57;94680.13;;;13.46;100.00
20620;BME280;10469;42.720;23.252;2023-05-29T01:02:23;94682.84;;;13.51;100.00
20620;BME280;10469;42.720;23.252;2023-05-29T01:04:50;94680.56;;;13.33;100.00
20620;BME280;10469;42.720;23.252;2023-05-29T01:07:19;94684.97;;;13.44;100.00
20620;BME280;10469;42.720;23.252;2023-05-29T01:09:45;94679.56;;;13.39;100.00
20620;BME280;10469;42.720;23.252;2023-05-29T01:14:58;94691.38;;;13.38;100.00
20620;BME280;10469;42.720;23.252;2023-05-29T01:17:36;94691.03;;;13.29;100.00
20620;BME280;10469;42.720;23.252;2023-05-29T01:28:39;94707.84;;;13.09;100.00
20620;BME280;10469;42.720;23.252;2023-05-29T01:31:07;94706.34;;;13.23;100.00
20620;BME280;10469;42.720;23.252;2023-05-29T01:33:32;94707.50;;;13.33;100.00
20620;BME280;10469;42.720;23.252;2023-05-29T01:35:58;94700.50;;;13.32;100.00
20620;BME280;10469;42.720;23.252;2023-05-29T01:38:24;94699.16;;;13.34;100.00
20620;BME280;10469;42.720;23.252;2023-05-29T01:40:49;94697.66;;;13.48;100.00
20620;BME280;10469;42.720;23.252;2023-05-29T01:43:15;94693.63;;;13.51;100.00
20620;BME280;10469;42.720;23.252;2023-05-29T01:45:41;94689.44;;;13.65;100.00
20620;BME280;10469;42.720;23.252;2023-05-29T01:48:07;94678.09;;;13.68;100.00
20620;BME280;10469;42.720;23.252;2023-05-29T01:50:33;94681.41;;;13.75;100.00
20620;BME280;10469;42.720;23.252;2023-05-29T01:52:59;94692.22;;;13.86;100.00
20620;BME280;10469;42.720;23.252;2023-05-29T01:55:25;94685.81;;;13.92;100.00
20620;BME280;10469;42.720;23.252;2023-05-29T01:57:51;94687.22;;;14.10;100.00
20620;BME280;10469;42.720;23.252;2023-05-29T02:00:17;94692.31;;;14.01;100.00
20620;BME280;10469;42.720;23.252;2023-05-29T02:02:44;94666.88;;;13.81;100.00
20620;BME280;10469;42.720;23.252;2023-05-29T02:05:10;94659.81;;;13.70;100.00
20620;BME280;10469;42.720;23.252;2023-05-29T02:07:35;94680.38;;;13.87;100.00
20620;BME280;10469;42.720;23.252;2023-05-29T02:10:04;94684.44;;;13.89;100.00
20620;BME280;10469;42.720;23.252;2023-05-29T02:12:30;94688.69;;;13.80;100.00
20620;BME280;10469;42.720;23.252;2023-05-29T02:14:56;94685.00;;;13.96;100.00
20620;BME280;10469;42.720;23.252;2023-05-29T02:17:22;94661.03;;;13.95;100.00
20620;BME280;10469;42.720;23.252;2023-05-29T02:19:47;94666.69;;;13.98;100.00
20620;BME280;10469;42.720;23.252;2023-05-29T02:22:13;94677.47;;;13.98;100.00
20620;BME280;10469;42.720;23.252;2023-05-29T02:24:39;94672.00;;;13.83;100.00
20620;BME280;10469;42.720;23.252;2023-05-29T02:27:04;94677.88;;;13.70;100.00
20620;BME280;10469;42.720;23.252;2023-05-29T02:29:30;94667.78;;;13.55;100.00
20620;BME280;10469;42.720;23.252;2023-05-29T02:31:55;94676.69;;;13.55;100.00
20620;BME280;10469;42.720;23.252;2023-05-29T02:34:21;94671.56;;;13.54;100.00
20620;BME280;10469;42.720;23.252;2023-05-29T02:36:51;94685.84;;;13.54;100.00
20620;BME280;10469;42.720;23.252;2023-05-29T02:39:19;94679.31;;;13.45;100.00
20620;BME280;10469;42.720;23.252;2023-05-29T02:41:46;94687.81;;;13.27;100.00
20620;BME280;10469;42.720;23.252;2023-05-29T02:44:11;94666.41;;;13.15;100.00
20620;BME280;10469;42.720;23.252;2023-05-29T02:46:36;94691.38;;;13.38;100.00
20620;BME280;10469;42.720;23.252;2023-05-29T02:49:02;94684.03;;;13.28;100.00
20620;BME280;10469;42.720;23.252;2023-05-29T02:51:28;94691.06;;;13.34;100.00
20620;BME280;10469;42.720;23.252;2023-05-29T02:53:53;94687.88;;;13.37;100.00
20620;BME280;10469;42.720;23.252;2023-05-29T02:56:19;94685.00;;;13.49;100.00
20620;BME280;10469;42.720;23.252;2023-05-29T02:58:49;94679.81;;;13.42;100.00
20620;BME280;10469;42.720;23.252;2023-05-29T03:01:15;94688.09;;;13.73;100.00
20620;BME280;10469;42.720;23.252;2023-05-29T03:03:41;94681.72;;;13.84;100.00
20620;BME280;10469;42.720;23.252;2023-05-29T03:06:06;94687.94;;;13.90;100.00
20620;BME280;10469;42.720;23.252;2023-05-29T03:08:34;94687.66;;;13.86;100.00
20620;BME280;10469;42.720;23.252;2023-05-29T03:11:00;94675.25;;;13.90;100.00
20620;BME280;10469;42.720;23.252;2023-05-29T03:13:25;94679.34;;;13.93;100.00
20620;BME280;10469;42.720;23.252;2023-05-29T03:15:51;94681.00;;;14.04;100.00
20620;BME280;10469;42.720;23.252;2023-05-29T03:18:21;94673.47;;;14.06;100.00
20620;BME280;10469;42.720;23.252;2023-05-29T03:20:47;94685.31;;;14.05;100.00
20620;BME280;10469;42.720;23.252;2023-05-29T03:23:13;94685.63;;;14.14;100.00
20620;BME280;10469;42.720;23.252;2023-05-29T03:25:38;94681.06;;;14.14;100.00
20620;BME280;10469;42.720;23.252;2023-05-29T03:28:04;94690.63;;;13.90;100.00
20620;BME280;10469;42.720;23.252;2023-05-29T03:30:29;94688.41;;;13.76;100.00
20620;BME280;10469;42.720;23.252;2023-05-29T03:32:55;94686.28;;;13.84;100.00
20620;BME280;10469;42.720;23.252;2023-05-29T03:35:20;94684.13;;;13.86;100.00
20620;BME280;10469;42.720;23.252;2023-05-29T03:37:45;94693.09;;;13.91;100.00
20620;BME280;10469;42.720;23.252;2023-05-29T03:40:11;94694.69;;;13.92;100.00
20620;BME280;10469;42.720;23.252;2023-05-29T03:42:37;94702.50;;;13.94;100.00
20620;BME280;10469;42.720;23.252;2023-05-29T03:45:03;94713.22;;;13.78;100.00
20620;BME280;10469;42.720;23.252;2023-05-29T03:47:28;94711.53;;;13.67;100.00
20620;BME280;10469;42.720;23.252;2023-05-29T03:49:54;94720.19;;;13.69;100.00
20620;BME280;10469;42.720;23.252;2023-05-29T03:52:20;94712.59;;;13.66;100.00
20620;BME280;10469;42.720;23.252;2023-05-29T03:54:45;94729.63;;;13.77;100.00
20620;BME280;10469;42.720;23.252;2023-05-29T03:57:11;94731.06;;;13.90;100.00
20620;BME280;10469;42.720;23.252;2023-05-29T03:59:36;94718.47;;;13.58;100.00
20620;BME280;10469;42.720;23.252;2023-05-29T04:02:02;94729.38;;;13.78;100.00
20620;BME280;10469;42.720;23.252;2023-05-29T04:04:28;94733.09;;;13.72;100.00
20620;BME280;10469;42.720;23.252;2023-05-29T04:06:53;94741.63;;;13.59;100.00
20620;BME280;10469;42.720;23.252;2023-05-29T04:09:19;94734.34;;;13.54;100.00
20620;BME280;10469;42.720;23.252;2023-05-29T04:11:44;94744.69;;;13.36;100.00
20620;BME280;10469;42.720;23.252;2023-05-29T04:14:11;94751.44;;;13.38;100.00
20620;BME280;10469;42.720;23.252;2023-05-29T04:16:36;94752.28;;;13.39;100.00
20620;BME280;10469;42.720;23.252;2023-05-29T04:19:02;94748.38;;;13.24;100.00
20620;BME280;10469;42.720;23.252;2023-05-29T04:21:27;94755.25;;;13.42;100.00
20620;BME280;10469;42.720;23.252;2023-05-29T04:23:53;94744.94;;;13.34;100.00
20620;BME280;10469;42.720;23.252;2023-05-29T04:26:21;94747.16;;;13.42;100.00
20620;BME280;10469;42.720;23.252;2023-05-29T04:28:50;94744.25;;;13.49;100.00
20620;BME280;10469;42.720;23.252;2023-05-29T04:31:17;94737.38;;;13.68;100.00
20620;BME280;10469;42.720;23.252;2023-05-29T04:33:43;94747.28;;;13.95;100.00
20620;BME280;10469;42.720;23.252;2023-05-29T04:36:10;94744.78;;;14.30;100.00
20620;BME280;10469;42.720;23.252;2023-05-29T04:38:36;94743.53;;;14.53;100.00
20620;BME280;10469;42.720;23.252;2023-05-29T04:41:02;94750.16;;;14.30;100.00
20620;BME280;10469;42.720;23.252;2023-05-29T04:43:28;94742.69;;;14.43;100.00
20620;BME280;10469;42.720;23.252;2023-05-29T04:45:53;94746.00;;;14.55;100.00
20620;BME280;10469;42.720;23.252;2023-05-29T04:48:19;94741.25;;;14.25;100.00
20620;BME280;10469;42.720;23.252;2023-05-29T04:50:44;94747.28;;;14.47;100.00
20620;BME280;10469;42.720;23.252;2023-05-29T04:53:10;94755.88;;;14.44;100.00
20620;BME280;10469;42.720;23.252;2023-05-29T04:55:36;94763.50;;;14.52;100.00
20620;BME280;10469;42.720;23.252;2023-05-29T04:58:01;94758.69;;;14.60;100.00
20620;BME280;10469;42.720;23.252;2023-05-29T05:00:27;94751.13;;;14.62;100.00
20620;BME280;10469;42.720;23.252;2023-05-29T05:02:53;94760.91;;;14.73;100.00
20620;BME280;10469;42.720;23.252;2023-05-29T05:05:18;94761.72;;;14.78;100.00
20620;BME280;10469;42.720;23.252;2023-05-29T05:07:44;94775.19;;;14.73;100.00
20620;BME280;10469;42.720;23.252;2023-05-29T05:10:09;94771.66;;;14.68;100.00
20620;BME280;10469;42.720;23.252;2023-05-29T05:12:35;94777.34;;;14.76;100.00
20620;BME280;10469;42.720;23.252;2023-05-29T05:15:02;94781.69;;;14.83;100.00
20620;BME280;10469;42.720;23.252;2023-05-29T05:17:27;94782.59;;;15.19;100.00
20620;BME280;10469;42.720;23.252;2023-05-29T05:19:53;94769.34;;;15.12;100.00
20620;BME280;10469;42.720;23.252;2023-05-29T05:22:18;94777.19;;;15.19;100.00
20620;BME280;10469;42.720;23.252;2023-05-29T05:24:44;94793.16;;;15.25;100.00
20620;BME280;10469;42.720;23.252;2023-05-29T05:27:10;94794.47;;;15.08;100.00
20620;BME280;10469;42.720;23.252;2023-05-29T05:29:35;94787.16;;;15.03;100.00
20620;BME280;10469;42.720;23.252;2023-05-29T05:32:01;94774.19;;;15.05;100.00
20620;BME280;10469;42.720;23.252;2023-05-29T05:34:26;94784.53;;;15.28;100.00
20620;BME280;10469;42.720;23.252;2023-05-29T05:36:52;94778.28;;;15.18;100.00
20620;BME280;10469;42.720;23.252;2023-05-29T05:39:18;94782.34;;;15.25;100.00
20620;BME280;10469;42.720;23.252;2023-05-29T05:41:44;94792.63;;;15.44;100.00
20620;BME280;10469;42.720;23.252;2023-05-29T05:44:10;94785.56;;;15.27;100.00
20620;BME280;10469;42.720;23.252;2023-05-29T05:46:35;94789.94;;;15.39;100.00
20620;BME280;10469;42.720;23.252;2023-05-29T05:49:00;94783.16;;;15.41;100.00
20620;BME280;10469;42.720;23.252;2023-05-29T05:51:27;94783.47;;;15.65;100.00
20620;BME280;10469;42.720;23.252;2023-05-29T05:53:52;94784.00;;;15.52;100.00
20620;BME280;10469;42.720;23.252;2023-05-29T05:56:18;94785.09;;;15.71;100.00
20620;BME280;10469;42.720;23.252;2023-05-29T05:58:43;94788.63;;;15.72;100.00
20620;BME280;10469;42.720;23.252;2023-05-29T06:01:09;94793.47;;;16.11;100.00
20620;BME280;10469;42.720;23.252;2023-05-29T06:03:35;94782.66;;;16.11;100.00
20620;BME280;10469;42.720;23.252;2023-05-29T06:06:02;94791.03;;;16.04;100.00
20620;BME280;10469;42.720;23.252;2023-05-29T06:08:27;94782.50;;;17.21;100.00
20620;BME280;10469;42.720;23.252;2023-05-29T06:10:53;94771.88;;;18.03;100.00
20620;BME280;10469;42.720;23.252;2023-05-29T06:13:18;94764.69;;;18.18;100.00
20620;BME280;10469;42.720;23.252;2023-05-29T06:15:44;94775.94;;;18.06;100.00
20620;BME280;10469;42.720;23.252;2023-05-29T06:18:10;94776.38;;;18.66;100.00
20620;BME280;10469;42.720;23.252;2023-05-29T06:20:35;94774.28;;;18.87;100.00
20620;BME280;10469;42.720;23.252;2023-05-29T06:23:01;94775.91;;;18.59;100.00
20620;BME280;10469;42.720;23.252;2023-05-29T06:25:27;94774.03;;;18.30;100.00
20620;BME280;10469;42.720;23.252;2023-05-29T06:27:59;94765.94;;;17.67;100.00
20620;BME280;10469;42.720;23.252;2023-05-29T06:30:25;94784.16;;;17.96;100.00
20620;BME280;10469;42.720;23.252;2023-05-29T06:32:51;94784.00;;;17.82;100.00
20620;BME280;10469;42.720;23.252;2023-05-29T06:35:16;94772.84;;;18.90;100.00
20620;BME280;10469;42.720;23.252;2023-05-29T06:37:41;94769.97;;;21.96;100.00
20620;BME280;10469;42.720;23.252;2023-05-29T06:40:07;94769.06;;;21.28;100.00
20620;BME280;10469;42.720;23.252;2023-05-29T06:42:33;94773.63;;;21.46;100.00
20620;BME280;10469;42.720;23.252;2023-05-29T06:44:58;94772.09;;;21.26;100.00
20620;BME280;10469;42.720;23.252;2023-05-29T06:47:24;94769.84;;;22.23;100.00
20620;BME280;10469;42.720;23.252;2023-05-29T06:49:49;94778.78;;;23.26;100.00
20620;BME280;10469;42.720;23.252;2023-05-29T06:52:15;94774.06;;;22.29;100.00
20620;BME280;10469;42.720;23.252;2023-05-29T06:54:40;94775.81;;;22.03;100.00
20620;BME280;10469;42.720;23.252;2023-05-29T06:57:06;94777.88;;;21.39;100.00
20620;BME280;10469;42.720;23.252;2023-05-29T06:59:32;94767.13;;;21.78;100.00
20620;BME280;10469;42.720;23.252;2023-05-29T07:01:58;94766.25;;;22.76;100.00
20620;BME280;10469;42.720;23.252;2023-05-29T07:04:23;94766.34;;;22.32;100.00
20620;BME280;10469;42.720;23.252;2023-05-29T07:06:49;94761.50;;;22.91;100.00
20620;BME280;10469;42.720;23.252;2023-05-29T07:09:16;94758.03;;;23.16;100.00
20620;BME280;10469;42.720;23.252;2023-05-29T07:11:42;94764.91;;;22.65;100.00
20620;BME280;10469;42.720;23.252;2023-05-29T07:14:08;94769.97;;;23.38;100.00
20620;BME280;10469;42.720;23.252;2023-05-29T07:16:33;94755.09;;;21.07;100.00
20620;BME280;10469;42.720;23.252;2023-05-29T07:18:59;94768.22;;;22.00;100.00
20620;BME280;10469;42.720;23.252;2023-05-29T07:21:25;94757.28;;;22.85;100.00
20620;BME280;10469;42.720;23.252;2023-05-29T07:23:50;94767.59;;;23.62;100.00
20620;BME280;10469;42.720;23.252;2023-05-29T07:26:16;94766.66;;;23.67;100.00
20620;BME280;10469;42.720;23.252;2023-05-29T07:28:41;94763.69;;;23.20;100.00
20620;BME280;10469;42.720;23.252;2023-05-29T07:31:07;94763.97;;;23.18;100.00
20620;BME280;10469;42.720;23.252;2023-05-29T07:33:32;94764.78;;;23.10;100.00
20620;BME280;10469;42.720;23.252;2023-05-29T07:35:58;94754.28;;;22.24;100.00
20620;BME280;10469;42.720;23.252;2023-05-29T07:38:23;94762.22;;;22.12;100.00
20620;BME280;10469;42.720;23.252;2023-05-29T07:40:48;94772.56;;;23.60;100.00
20620;BME280;10469;42.720;23.252;2023-05-29T07:43:14;94765.31;;;23.47;100.00
20620;BME280;10469;42.720;23.252;2023-05-29T07:45:39;94753.72;;;24.11;100.00
20620;BME280;10469;42.720;23.252;2023-05-29T07:48:05;94748.03;;;26.23;100.00
20620;BME280;10469;42.720;23.252;2023-05-29T07:50:30;94767.94;;;23.69;100.00
20620;BME280;10469;42.720;23.252;2023-05-29T07:52:56;94759.81;;;23.29;100.00
20620;BME280;10469;42.720;23.252;2023-05-29T07:55:22;94757.31;;;21.55;100.00
20620;BME280;10469;42.720;23.252;2023-05-29T07:57:47;94755.16;;;22.11;100.00
20620;BME280;10469;42.720;23.252;2023-05-29T08:00:14;94740.69;;;22.33;100.00
20620;BME280;10469;42.720;23.252;2023-05-29T08:02:40;94740.59;;;26.23;100.00
20620;BME280;10469;42.720;23.252;2023-05-29T08:05:08;94737.38;;;26.67;96.27
20620;BME280;10469;42.720;23.252;2023-05-29T08:07:36;94757.09;;;23.47;100.00
20620;BME280;10469;42.720;23.252;2023-05-29T08:10:01;94759.69;;;21.34;100.00
20620;BME280;10469;42.720;23.252;2023-05-29T08:12:27;94767.31;;;21.60;100.00
20620;BME280;10469;42.720;23.252;2023-05-29T08:14:52;94752.91;;;20.82;100.00
20620;BME280;10469;42.720;23.252;2023-05-29T08:17:18;94756.25;;;21.15;100.00
20620;BME280;10469;42.720;23.252;2023-05-29T08:19:43;94761.50;;;21.39;100.00
20620;BME280;10469;42.720;23.252;2023-05-29T08:22:12;94760.06;;;20.77;100.00
20620;BME280;10469;42.720;23.252;2023-05-29T08:24:38;94763.50;;;21.47;100.00
20620;BME280;10469;42.720;23.252;2023-05-29T08:27:03;94765.81;;;23.40;100.00
20620;BME280;10469;42.720;23.252;2023-05-29T08:29:29;94760.41;;;23.09;100.00
20620;BME280;10469;42.720;23.252;2023-05-29T08:31:56;94763.53;;;22.14;100.00
20620;BME280;10469;42.720;23.252;2023-05-29T08:34:21;94760.03;;;22.85;100.00
20620;BME280;10469;42.720;23.252;2023-05-29T08:36:47;94763.22;;;24.13;100.00
20620;BME280;10469;42.720;23.252;2023-05-29T08:39:13;94759.38;;;22.48;100.00
20620;BME280;10469;42.720;23.252;2023-05-29T08:41:53;94751.38;;;21.98;100.00
20620;BME280;10469;42.720;23.252;2023-05-29T08:44:24;94761.28;;;21.71;100.00
20620;BME280;10469;42.720;23.252;2023-05-29T08:46:55;94753.97;;;22.03;100.00
20620;BME280;10469;42.720;23.252;2023-05-29T08:49:22;94749.00;;;21.83;100.00
20620;BME280;10469;42.720;23.252;2023-05-29T08:51:49;94749.47;;;20.90;100.00
20620;BME280;10469;42.720;23.252;2023-05-29T08:54:20;94748.34;;;20.77;100.00
20620;BME280;10469;42.720;23.252;2023-05-29T08:56:45;94741.91;;;21.37;100.00
20620;BME280;10469;42.720;23.252;2023-05-29T08:59:11;94747.06;;;21.24;100.00
20620;BME280;10469;42.720;23.252;2023-05-29T09:01:37;94735.97;;;21.79;100.00
20620;BME280;10469;42.720;23.252;2023-05-29T09:04:04;94737.97;;;21.65;100.00
20620;BME280;10469;42.720;23.252;2023-05-29T09:06:30;94738.16;;;22.85;100.00
20620;BME280;10469;42.720;23.252;2023-05-29T09:08:56;94728.56;;;26.98;95.25
20620;BME280;10469;42.720;23.252;2023-05-29T09:11:23;94716.81;;;27.50;85.15
20620;BME280;10469;42.720;23.252;2023-05-29T09:13:48;94724.50;;;29.00;71.67
20620;BME280;10469;42.720;23.252;2023-05-29T09:16:16;94698.53;;;28.54;63.46
20620;BME280;10469;42.720;23.252;2023-05-29T09:18:42;94706.91;;;28.30;67.59
20620;BME280;10469;42.720;23.252;2023-05-29T09:21:25;94709.22;;;29.38;58.72
20620;BME280;10469;42.720;23.252;2023-05-29T09:23:52;94710.59;;;29.13;58.43
20620;BME280;10469;42.720;23.252;2023-05-29T09:26:21;94715.53;;;28.72;61.92
20620;BME280;10469;42.720;23.252;2023-05-29T09:28:48;94697.31;;;25.24;84.01
20620;BME280;10469;42.720;23.252;2023-05-29T09:31:14;94678.66;;;25.93;84.29
20620;BME280;10469;42.720;23.252;2023-05-29T09:33:49;94701.69;;;24.96;88.94
20620;BME280;10469;42.720;23.252;2023-05-29T09:36:22;94692.22;;;26.92;75.37
20620;BME280;10469;42.720;23.252;2023-05-29T09:38:48;94685.19;;;25.67;84.78
20620;BME280;10469;42.720;23.252;2023-05-29T09:41:20;94681.38;;;27.89;73.18
20620;BME280;10469;42.720;23.252;2023-05-29T09:43:46;94668.78;;;28.63;58.98
20620;BME280;10469;42.720;23.252;2023-05-29T09:46:17;94676.66;;;28.33;63.94
20620;BME280;10469;42.720;23.252;2023-05-29T09:48:44;94675.53;;;28.66;61.62
20620;BME280;10469;42.720;23.252;2023-05-29T09:51:22;94678.53;;;27.45;71.02
20620;BME280;10469;42.720;23.252;2023-05-29T09:53:48;94669.06;;;27.06;69.54
20620;BME280;10469;42.720;23.252;2023-05-29T09:56:16;94660.75;;;27.42;65.86
20620;BME280;10469;42.720;23.252;2023-05-29T09:58:45;94669.28;;;29.16;56.73
20620;BME280;10469;42.720;23.252;2023-05-29T10:01:15;94665.88;;;27.04;70.89
20620;BME280;10469;42.720;23.252;2023-05-29T10:03:42;94674.16;;;24.84;89.77
20620;BME280;10469;42.720;23.252;2023-05-29T10:06:10;94674.09;;;25.97;82.23
20620;BME280;10469;42.720;23.252;2023-05-29T10:08:38;94667.34;;;27.01;71.79
20620;BME280;10469;42.720;23.252;2023-05-29T10:11:05;94665.97;;;28.16;64.27
20620;BME280;10469;42.720;23.252;2023-05-29T10:13:38;94659.97;;;25.86;76.88
20620;BME280;10469;42.720;23.252;2023-05-29T10:16:08;94655.28;;;27.06;71.88
20620;BME280;10469;42.720;23.252;2023-05-29T10:18:39;94657.72;;;28.79;64.14
20620;BME280;10469;42.720;23.252;2023-05-29T10:21:07;94666.56;;;26.06;68.67
20620;BME280;10469;42.720;23.252;2023-05-29T10:23:38;94644.50;;;27.65;63.63
20620;BME280;10469;42.720;23.252;2023-05-29T10:26:11;94661.84;;;27.94;60.17
20620;BME280;10469;42.720;23.252;2023-05-29T10:28:39;94649.66;;;31.10;47.14
20620;BME280;10469;42.720;23.252;2023-05-29T10:31:16;94643.84;;;29.07;47.83
20620;BME280;10469;42.720;23.252;2023-05-29T10:34:06;94644.44;;;29.36;55.33
20620;BME280;10469;42.720;23.252;2023-05-29T10:36:46;94656.69;;;26.63;67.40
20620;BME280;10469;42.720;23.252;2023-05-29T10:39:15;94648.06;;;25.28;77.26
20620;BME280;10469;42.720;23.252;2023-05-29T10:41:40;94639.75;;;25.37;67.94
20620;BME280;10469;42.720;23.252;2023-05-29T10:44:39;94652.06;;;24.80;77.49
20620;BME280;10469;42.720;23.252;2023-05-29T10:47:05;94645.88;;;26.33;71.09
20620;BME280;10469;42.720;23.252;2023-05-29T10:49:32;94628.22;;;26.10;64.63
20620;BME280;10469;42.720;23.252;2023-05-29T10:51:58;94639.41;;;25.92;66.73
20620;BME280;10469;42.720;23.252;2023-05-29T10:54:28;94644.53;;;24.98;77.84
20620;BME280;10469;42.720;23.252;2023-05-29T10:57:07;94623.84;;;27.31;70.05
20620;BME280;10469;42.720;23.252;2023-05-29T10:59:37;94604.28;;;28.68;55.45
20620;BME280;10469;42.720;23.252;2023-05-29T11:02:04;94612.81;;;29.14;52.46
20620;BME280;10469;42.720;23.252;2023-05-29T11:04:31;94605.94;;;29.23;46.53
20620;BME280;10469;42.720;23.252;2023-05-29T11:06:58;94601.66;;;27.96;42.81
20620;BME280;10469;42.720;23.252;2023-05-29T11:09:35;94598.78;;;26.96;50.66
20620;BME280;10469;42.720;23.252;2023-05-29T11:12:21;94617.13;;;27.16;49.89
20620;BME280;10469;42.720;23.252;2023-05-29T11:15:06;94600.63;;;28.64;47.97
20620;BME280;10469;42.720;23.252;2023-05-29T11:20:05;94572.19;;;24.61;68.82
20620;BME280;10469;42.720;23.252;2023-05-29T11:22:48;94602.50;;;24.85;71.19
20620;BME280;10469;42.720;23.252;2023-05-29T11:25:20;94598.69;;;26.19;63.00
20620;BME280;10469;42.720;23.252;2023-05-29T11:27:46;94574.28;;;25.93;58.39
20620;BME280;10469;42.720;23.252;2023-05-29T11:30:12;94591.25;;;26.19;62.04
20620;BME280;10469;42.720;23.252;2023-05-29T11:32:40;94595.34;;;25.89;66.86
20620;BME280;10469;42.720;23.252;2023-05-29T11:35:08;94586.56;;;25.08;70.27
20620;BME280;10469;42.720;23.252;2023-05-29T11:37:41;94595.00;;;24.14;75.43
20620;BME280;10469;42.720;23.252;2023-05-29T11:40:11;94593.66;;;23.82;77.11
20620;BME280;10469;42.720;23.252;2023-05-29T11:42:44;94587.63;;;24.06;79.99
20620;BME280;10469;42.720;23.252;2023-05-29T11:45:17;94611.56;;;23.80;79.07
20620;BME280;10469;42.720;23.252;2023-05-29T11:48:01;94595.34;;;22.96;90.83
20620;BME280;10469;42.720;23.252;2023-05-29T11:50:31;94600.38;;;23.03;91.15
20620;BME280;10469;42.720;23.252;2023-05-29T11:52:58;94597.25;;;22.70;89.10
20620;BME280;10469;42.720;23.252;2023-05-29T11:55:26;94598.84;;;22.62;88.03
20620;BME280;10469;42.720;23.252;2023-05-29T11:58:00;94590.19;;;23.29;84.07
20620;BME280;10469;42.720;23.252;2023-05-29T12:00:29;94587.31;;;23.17;89.40
20620;BME280;10469;42.720;23.252;2023-05-29T12:02:57;94577.81;;;22.63;92.81
20620;BME280;10469;42.720;23.252;2023-05-29T12:05:23;94595.25;;;22.36;95.33
20620;BME280;10469;42.720;23.252;2023-05-29T12:07:52;94588.66;;;22.28;97.25
20620;BME280;10469;42.720;23.252;2023-05-29T12:10:19;94589.06;;;22.78;96.58
20620;BME280;10469;42.720;23.252;2023-05-29T12:12:51;94588.63;;;23.20;96.01
20620;BME280;10469;42.720;23.252;2023-05-29T12:15:17;94575.09;;;23.23;95.04
20620;BME280;10469;42.720;23.252;2023-05-29T12:17:44;94592.72;;;22.57;100.00
20620;BME280;10469;42.720;23.252;2023-05-29T12:20:11;94576.56;;;21.81;100.00
20620;BME280;10469;42.720;23.252;2023-05-29T12:22:38;94593.38;;;21.20;100.00
20620;BME280;10469;42.720;23.252;2023-05-29T12:25:09;94602.56;;;20.52;100.00
20620;BME280;10469;42.720;23.252;2023-05-29T12:27:34;94606.09;;;19.84;100.00
20620;BME280;10469;42.720;23.252;2023-05-29T12:30:07;94624.75;;;19.44;100.00
20620;BME280;10469;42.720;23.252;2023-05-29T12:32:35;94637.31;;;19.40;100.00
20620;BME280;10469;42.720;23.252;2023-05-29T12:35:01;94643.41;;;18.99;100.00
20620;BME280;10469;42.720;23.252;2023-05-29T12:37:30;94639.38;;;18.77;100.00
20620;BME280;10469;42.720;23.252;2023-05-29T12:40:14;94665.22;;;18.75;100.00
20620;BME280;10469;42.720;23.252;2023-05-29T12:42:40;94651.94;;;18.92;100.00
20620;BME280;10469;42.720;23.252;2023-05-29T12:45:07;94659.66;;;19.37;100.00
20620;BME280;10469;42.720;23.252;2023-05-29T12:47:33;94648.50;;;19.71;100.00
20620;BME280;10469;42.720;23.252;2023-05-29T12:50:04;94642.50;;;20.15;100.00
20620;BME280;10469;42.720;23.252;2023-05-29T12:52:29;94655.63;;;20.27;100.00
20620;BME280;10469;42.720;23.252;2023-05-29T12:54:55;94638.06;;;20.19;100.00
20620;BME280;10469;42.720;23.252;2023-05-29T12:57:20;94660.44;;;19.89;100.00